Phoenix, Arizona
Traffic Map
Current Weather Conditions
Phoenix, Arizona
Clear
Clear
76°
Feels Like: 76°
Wind Chill: 76° Ceiling: Unl
Heat Index: 76° Visibility: 10mi
Dew Point: 33° Wind: 3mph
Humidity: 21% Direction: ° ()
Pressure: 29.88in Gusts: 0mph
Raw Report DataKPHX 241551Z VRB03KT 10SM CLR 24/01 A2988 RMK AO2 SLP101 T02440006
Traffic Incident Summary
Active as of:
Severity:
Category:
InformationThere was an issue retrieving the traffic information for this location. Please try a different location or try again shortly.
Advertisements
Track Severe Weather on mobile